createdAt,value
2023-03-24T00:01:20.783Z,1.80
2023-03-24T00:03:52.073Z,1.93
2023-03-24T00:06:22.616Z,1.83
2023-03-24T00:08:51.048Z,1.60
2023-03-24T00:11:21.089Z,1.90
2023-03-24T00:13:51.159Z,1.90
2023-03-24T00:16:21.806Z,2.07
2023-03-24T00:18:53.922Z,1.80
2023-03-24T00:21:25.082Z,1.70
2023-03-24T00:23:55.625Z,1.83
2023-03-24T00:26:25.264Z,1.83
2023-03-24T00:28:57.205Z,1.80
2023-03-24T00:31:26.558Z,2.07
2023-03-24T00:33:55.321Z,1.43
2023-03-24T00:36:25.822Z,1.63
2023-03-24T00:38:55.725Z,1.57
2023-03-24T00:41:27.113Z,1.70
2023-03-24T00:43:58.685Z,1.60
2023-03-24T00:46:30.674Z,2.10
2023-03-24T00:49:05.799Z,1.80
2023-03-24T00:51:37.109Z,1.77
2023-03-24T00:54:06.742Z,1.60
2023-03-24T00:56:38.063Z,1.80
2023-03-24T00:59:10.236Z,1.93
2023-03-24T01:01:41.254Z,1.80
2023-03-24T01:04:10.455Z,1.97
2023-03-24T01:06:39.560Z,1.60
2023-03-24T01:09:08.623Z,1.60
2023-03-24T01:11:40.098Z,1.33
2023-03-24T01:14:11.063Z,1.63
2023-03-24T01:16:39.586Z,1.70
2023-03-24T01:19:09.401Z,1.90
2023-03-24T01:21:38.979Z,1.53
2023-03-24T01:24:08.317Z,1.73
2023-03-24T01:26:36.930Z,1.73
2023-03-24T01:29:06.107Z,1.87
2023-03-24T01:31:36.795Z,2.60
2023-03-24T01:34:05.433Z,1.23
2023-03-24T01:36:33.864Z,1.70
2023-03-24T01:39:02.201Z,1.63
2023-03-24T01:41:35.010Z,1.80
2023-03-24T01:44:03.691Z,2.07
2023-03-24T01:46:34.207Z,1.63
2023-03-24T01:49:07.991Z,1.60
2023-03-24T01:51:40.079Z,1.70
2023-03-24T01:54:13.011Z,2.13
2023-03-24T01:56:45.281Z,1.70
2023-03-24T01:59:19.739Z,1.97
2023-03-24T02:02:08.124Z,2.00
2023-03-24T02:04:48.514Z,2.00
2023-03-24T02:07:31.216Z,1.70
2023-03-24T02:09:59.488Z,2.20
2023-03-24T02:12:28.160Z,2.10
2023-03-24T02:14:57.759Z,2.00
2023-03-24T02:17:48.777Z,1.93
2023-03-24T02:20:56.342Z,1.90
2023-03-24T02:23:57.565Z,1.90
2023-03-24T02:26:55.073Z,1.80
2023-03-24T02:29:57.217Z,1.50
2023-03-24T02:33:04.666Z,1.83
2023-03-24T02:36:16.869Z,1.73
2023-03-24T02:39:17.363Z,1.43
2023-03-24T02:41:54.986Z,1.53
2023-03-24T02:44:29.805Z,1.30
2023-03-24T02:47:03.807Z,1.67
2023-03-24T02:49:39.045Z,2.03
2023-03-24T02:52:13.413Z,1.80
2023-03-24T02:54:49.069Z,2.00
2023-03-24T02:57:23.982Z,1.70
2023-03-24T03:00:16.822Z,1.70
2023-03-24T03:03:22.246Z,2.17
2023-03-24T03:05:55.140Z,1.70
2023-03-24T03:08:25.842Z,1.70
2023-03-24T03:10:57.098Z,2.00
2023-03-24T03:13:32.466Z,2.30
2023-03-24T03:16:07.279Z,1.77
2023-03-24T03:18:41.632Z,1.90
2023-03-24T03:21:13.952Z,1.83
2023-03-24T03:23:46.793Z,2.10
2023-03-24T03:26:18.480Z,1.50
2023-03-24T03:28:57.832Z,1.57
2023-03-24T03:31:31.013Z,1.83
2023-03-24T03:34:08.249Z,1.80
2023-03-24T03:36:43.777Z,1.57
2023-03-24T03:39:17.085Z,1.40
2023-03-24T03:41:46.612Z,1.97
2023-03-24T03:44:16.697Z,1.70
2023-03-24T03:46:45.169Z,1.80
2023-03-24T03:49:19.556Z,1.53
2023-03-24T03:51:47.800Z,1.80
2023-03-24T03:54:18.218Z,1.80
2023-03-24T03:56:49.975Z,1.70
2023-03-24T03:59:29.721Z,2.00
2023-03-24T04:01:59.914Z,1.87
2023-03-24T04:05:10.118Z,1.63
2023-03-24T04:07:53.926Z,1.93
2023-03-24T04:10:58.939Z,2.00
2023-03-24T04:13:37.432Z,1.77
2023-03-24T04:16:23.476Z,1.97
2023-03-24T04:19:30.254Z,2.10
2023-03-24T04:22:10.920Z,2.07
2023-03-24T04:24:49.963Z,2.50
2023-03-24T04:27:27.466Z,2.63
2023-03-24T04:30:09.215Z,2.47
2023-03-24T04:32:46.486Z,2.63
2023-03-24T04:35:31.626Z,2.90
2023-03-24T04:38:28.863Z,3.10
2023-03-24T04:41:11.998Z,2.80
2023-03-24T04:43:41.927Z,2.50
2023-03-24T04:46:12.083Z,3.40
2023-03-24T04:49:03.260Z,2.43
2023-03-24T04:51:34.593Z,2.93
2023-03-24T04:54:06.513Z,3.57
2023-03-24T04:56:46.142Z,2.90
2023-03-24T04:59:25.971Z,3.10
2023-03-24T05:01:54.302Z,3.27
2023-03-24T05:04:36.942Z,3.20
2023-03-24T05:07:17.490Z,3.00
2023-03-24T05:09:48.574Z,2.60
2023-03-24T05:12:22.152Z,2.60
2023-03-24T05:15:19.448Z,3.13
2023-03-24T05:17:52.625Z,3.00
2023-03-24T05:20:26.175Z,2.63
2023-03-24T05:22:55.392Z,3.30
2023-03-24T05:25:23.742Z,3.47
2023-03-24T05:27:52.850Z,3.70
2023-03-24T05:30:25.126Z,3.70
2023-03-24T05:32:59.981Z,2.73
2023-03-24T05:35:29.589Z,2.57
2023-03-24T05:37:58.052Z,3.27
2023-03-24T05:40:27.089Z,2.77
2023-03-24T05:43:15.560Z,2.80
2023-03-24T05:45:50.996Z,3.20
2023-03-24T05:48:28.980Z,3.13
2023-03-24T05:51:19.292Z,2.60
2023-03-24T05:53:53.089Z,3.43
2023-03-24T05:56:37.725Z,2.80
2023-03-24T05:59:17.169Z,3.00
2023-03-24T06:01:56.778Z,3.00
2023-03-24T06:04:32.644Z,3.10
2023-03-24T06:07:09.100Z,3.60
2023-03-24T06:09:42.313Z,3.17
2023-03-24T06:12:12.957Z,3.20
2023-03-24T06:14:49.383Z,2.97
2023-03-24T06:17:17.790Z,2.90
2023-03-24T06:19:50.176Z,2.90
2023-03-24T06:22:40.160Z,2.93
2023-03-24T06:25:15.302Z,3.20
2023-03-24T06:27:49.089Z,3.43
2023-03-24T06:30:22.011Z,4.23
2023-03-24T06:32:51.285Z,2.77
2023-03-24T06:35:20.887Z,3.50
2023-03-24T06:37:57.976Z,2.90
2023-03-24T06:40:26.505Z,2.80
2023-03-24T06:42:58.938Z,3.10
2023-03-24T06:45:28.625Z,3.47
2023-03-24T06:47:58.767Z,3.40
2023-03-24T06:50:30.823Z,2.80
2023-03-24T06:53:00.378Z,3.70
2023-03-24T06:55:30.431Z,3.87
2023-03-24T06:57:58.769Z,3.43
2023-03-24T07:01:02.165Z,2.70
2023-03-24T07:03:38.866Z,3.17
2023-03-24T07:06:27.309Z,3.30
2023-03-24T07:08:59.580Z,3.70
2023-03-24T07:11:29.641Z,4.33
2023-03-24T07:14:02.633Z,3.70
2023-03-24T07:16:32.179Z,3.50
2023-03-24T07:19:23.634Z,4.20
2023-03-24T07:22:03.620Z,4.90
2023-03-24T07:24:49.750Z,5.07
2023-03-24T07:27:41.675Z,4.20
2023-03-24T07:30:11.483Z,3.10
2023-03-24T07:32:43.880Z,3.73
2023-03-24T07:35:14.238Z,3.80
2023-03-24T07:37:42.698Z,4.10
2023-03-24T07:40:14.867Z,3.70
2023-03-24T07:42:44.072Z,4.40
2023-03-24T07:45:34.801Z,4.63
2023-03-24T07:48:03.542Z,3.70
2023-03-24T07:50:36.292Z,4.13
2023-03-24T07:53:11.701Z,4.07
2023-03-24T07:55:41.452Z,4.00
2023-03-24T07:58:15.498Z,4.23
2023-03-24T08:00:59.848Z,3.90
2023-03-24T08:03:38.411Z,5.03
2023-03-24T08:06:18.401Z,4.20
2023-03-24T08:08:51.882Z,3.40
2023-03-24T08:11:21.672Z,4.50
2023-03-24T08:13:50.020Z,4.23
2023-03-24T08:16:18.196Z,3.30
2023-03-24T08:18:46.344Z,3.40
2023-03-24T08:21:14.487Z,3.43
2023-03-24T08:23:42.819Z,3.50
2023-03-24T08:26:11.765Z,3.90
2023-03-24T08:28:41.594Z,4.00
2023-03-24T08:31:10.017Z,3.53
2023-03-24T08:33:38.261Z,3.60
2023-03-24T08:36:08.359Z,3.10
2023-03-24T08:38:38.940Z,2.27
2023-03-24T08:41:08.627Z,3.07
2023-03-24T08:43:38.033Z,2.73
2023-03-24T08:46:11.143Z,2.80
2023-03-24T08:48:41.186Z,3.00
2023-03-24T08:51:14.092Z,3.07
2023-03-24T08:53:42.398Z,2.93
2023-03-24T08:56:11.467Z,3.20
2023-03-24T08:58:39.854Z,3.17
2023-03-24T09:01:10.223Z,3.33
2023-03-24T09:03:39.885Z,3.10
2023-03-24T09:06:08.848Z,3.00
2023-03-24T09:08:37.048Z,3.03
2023-03-24T09:11:06.024Z,3.07
2023-03-24T09:13:34.514Z,3.70
2023-03-24T09:16:05.182Z,2.67
2023-03-24T09:18:34.949Z,3.30
2023-03-24T09:21:03.467Z,3.40
2023-03-24T09:23:32.312Z,3.40
2023-03-24T09:26:01.149Z,2.77
2023-03-24T09:28:29.510Z,2.73
2023-03-24T09:31:02.258Z,2.83
2023-03-24T09:33:31.078Z,3.27
2023-03-24T09:36:02.236Z,2.77
2023-03-24T09:38:31.062Z,2.20
2023-03-24T09:41:02.857Z,2.50
2023-03-24T09:43:38.522Z,3.00
2023-03-24T09:46:12.494Z,2.60
2023-03-24T09:48:45.461Z,2.53
2023-03-24T09:51:21.435Z,2.10
2023-03-24T09:53:59.249Z,2.00
2023-03-24T09:56:29.941Z,1.90
2023-03-24T09:59:05.753Z,1.90
2023-03-24T10:01:35.751Z,1.80
2023-03-24T10:04:05.303Z,2.00
2023-03-24T10:06:40.142Z,2.20
2023-03-24T10:09:22.803Z,2.20
2023-03-24T10:11:58.592Z,2.10
2023-03-24T10:14:37.885Z,2.70
2023-03-24T10:17:15.989Z,1.77
2023-03-24T10:19:50.954Z,2.27
2023-03-24T10:22:26.830Z,1.93
2023-03-24T10:25:00.403Z,2.43
2023-03-24T10:27:33.029Z,2.00
2023-03-24T10:30:08.059Z,2.30
2023-03-24T10:32:36.984Z,2.00
2023-03-24T10:35:10.027Z,2.17
2023-03-24T10:37:40.106Z,1.83
2023-03-24T10:40:16.695Z,2.60
2023-03-24T10:42:48.748Z,1.60
2023-03-24T10:45:28.153Z,2.37
2023-03-24T10:47:59.942Z,1.70
2023-03-24T10:50:29.893Z,1.77
2023-03-24T10:52:59.471Z,1.80
2023-03-24T10:55:32.501Z,1.60
2023-03-24T10:58:02.250Z,1.53
2023-03-24T11:00:32.481Z,1.80
2023-03-24T11:03:03.205Z,1.93
2023-03-24T11:05:34.976Z,1.70
2023-03-24T11:08:25.673Z,1.53
2023-03-24T11:10:53.795Z,1.33
2023-03-24T11:13:30.272Z,1.20
2023-03-24T11:16:08.335Z,1.30
2023-03-24T11:18:36.460Z,1.73
2023-03-24T11:21:07.165Z,1.00
2023-03-24T11:23:40.079Z,1.50
2023-03-24T11:26:11.153Z,1.20
2023-03-24T11:28:41.963Z,1.20
2023-03-24T11:31:11.784Z,1.10
2023-03-24T11:33:47.338Z,1.30
2023-03-24T11:36:50.512Z,1.33
2023-03-24T11:39:22.732Z,1.27
2023-03-24T11:42:15.070Z,1.00
2023-03-24T11:44:46.928Z,1.47
2023-03-24T11:47:22.509Z,1.40
2023-03-24T11:49:58.168Z,1.30
2023-03-24T11:52:31.460Z,1.60
2023-03-24T11:55:01.615Z,1.40
2023-03-24T11:57:44.586Z,1.40
2023-03-24T12:00:21.195Z,1.70
2023-03-24T12:03:19.780Z,1.33
2023-03-24T12:05:53.717Z,1.30
2023-03-24T12:08:38.760Z,1.13
2023-03-24T12:11:18.117Z,1.47
2023-03-24T12:13:50.574Z,1.17
2023-03-24T12:16:37.716Z,1.20
2023-03-24T12:19:30.693Z,1.47
2023-03-24T12:22:09.024Z,1.07
2023-03-24T12:24:53.995Z,1.20
2023-03-24T12:27:32.543Z,1.13
2023-03-24T12:30:05.581Z,1.07
2023-03-24T12:32:48.383Z,0.93
2023-03-24T12:35:37.553Z,1.17
2023-03-24T12:38:22.109Z,1.10
2023-03-24T12:41:04.942Z,1.40
2023-03-24T12:43:44.224Z,1.10
2023-03-24T12:46:40.717Z,0.90
2023-03-24T12:49:43.686Z,1.00
2023-03-24T12:52:24.430Z,1.40
2023-03-24T12:54:56.539Z,1.23
2023-03-24T12:57:28.444Z,0.90
2023-03-24T13:00:02.535Z,1.10
2023-03-24T13:02:35.125Z,1.20
2023-03-24T13:05:08.626Z,1.80
2023-03-24T13:07:39.416Z,1.00
2023-03-24T13:10:15.463Z,1.10
2023-03-24T13:12:47.631Z,1.10
2023-03-24T13:15:20.797Z,1.10
2023-03-24T13:17:52.982Z,1.10
2023-03-24T13:20:26.208Z,1.20
2023-03-24T13:22:54.359Z,1.40
2023-03-24T13:25:32.245Z,1.30
2023-03-24T13:28:06.683Z,1.03
2023-03-24T13:30:39.373Z,1.30
2023-03-24T13:33:15.181Z,1.47
2023-03-24T13:36:08.866Z,1.80
2023-03-24T13:38:42.318Z,1.47
2023-03-24T13:41:18.140Z,1.30
2023-03-24T13:43:50.720Z,1.20
2023-03-24T13:46:20.846Z,1.47
2023-03-24T13:48:53.522Z,1.47
2023-03-24T13:51:26.602Z,1.90
2023-03-24T13:53:59.598Z,1.73
2023-03-24T13:56:34.097Z,1.23
2023-03-24T13:59:23.931Z,1.70
2023-03-24T14:02:18.845Z,1.80
2023-03-24T14:04:48.822Z,2.30
2023-03-24T14:07:45.847Z,2.40
2023-03-24T14:10:38.038Z,2.20
2023-03-24T14:13:08.788Z,1.60
2023-03-24T14:15:41.877Z,1.83
2023-03-24T14:18:39.656Z,1.70
2023-03-24T14:21:09.828Z,2.00
2023-03-24T14:23:40.662Z,1.90
2023-03-24T14:26:14.144Z,1.40
2023-03-24T14:28:46.729Z,1.50
2023-03-24T14:31:29.229Z,2.10
2023-03-24T14:34:03.649Z,3.50
2023-03-24T14:36:35.158Z,2.67
2023-03-24T14:39:23.884Z,4.60
2023-03-24T14:41:52.721Z,3.27
2023-03-24T14:44:54.110Z,4.90
2023-03-24T14:47:23.519Z,1.83
2023-03-24T14:49:54.813Z,2.40
2023-03-24T14:52:27.063Z,2.37
2023-03-24T14:54:58.027Z,2.20
2023-03-24T14:57:28.228Z,1.70
2023-03-24T15:00:06.965Z,2.27
2023-03-24T15:02:38.972Z,1.80
2023-03-24T15:05:31.638Z,1.30
2023-03-24T15:08:03.290Z,1.40
2023-03-24T15:10:37.973Z,1.50
2023-03-24T15:13:06.273Z,1.73
2023-03-24T15:15:34.902Z,1.50
2023-03-24T15:18:04.137Z,1.30
2023-03-24T15:20:38.207Z,1.10
2023-03-24T15:23:07.512Z,1.90
2023-03-24T15:25:35.893Z,2.00
2023-03-24T15:28:14.477Z,1.70
2023-03-24T15:30:42.941Z,2.00
2023-03-24T15:33:14.044Z,2.07
2023-03-24T15:35:45.088Z,1.57
2023-03-24T15:38:21.736Z,1.30
2023-03-24T15:41:02.140Z,1.43
2023-03-24T15:43:31.121Z,1.60
2023-03-24T15:46:11.996Z,1.67
2023-03-24T15:48:41.138Z,1.50
2023-03-24T15:51:12.457Z,1.80
2023-03-24T15:53:44.511Z,1.60
2023-03-24T15:56:20.616Z,1.93
2023-03-24T15:58:52.733Z,1.43
2023-03-24T16:01:27.352Z,1.30
2023-03-24T16:03:56.432Z,2.40
2023-03-24T16:06:30.991Z,1.50
2023-03-24T16:09:06.664Z,1.80
2023-03-24T16:11:34.838Z,1.43
2023-03-24T16:14:10.532Z,1.60
2023-03-24T16:16:39.719Z,1.50
2023-03-24T16:19:07.909Z,1.20
2023-03-24T16:21:37.821Z,1.60
2023-03-24T16:24:06.702Z,1.40
2023-03-24T16:26:35.059Z,1.53
2023-03-24T16:29:15.264Z,1.57
2023-03-24T16:31:44.174Z,1.63
2023-03-24T16:34:12.372Z,1.53
2023-03-24T16:36:41.929Z,1.10
2023-03-24T16:39:16.614Z,1.47
2023-03-24T16:41:45.572Z,1.80
2023-03-24T16:44:14.363Z,1.73
2023-03-24T16:46:45.268Z,1.40
2023-03-24T16:49:17.313Z,1.70
2023-03-24T16:51:48.095Z,1.50
2023-03-24T16:54:16.573Z,2.00
2023-03-24T16:56:44.729Z,1.47
2023-03-24T16:59:15.593Z,1.50
2023-03-24T17:01:45.768Z,1.90
2023-03-24T17:04:16.239Z,1.53
2023-03-24T17:06:49.126Z,1.90
2023-03-24T17:09:17.737Z,1.90
2023-03-24T17:11:49.709Z,1.40
2023-03-24T17:14:18.019Z,1.77
2023-03-24T17:16:49.097Z,1.47
2023-03-24T17:19:19.155Z,1.67
2023-03-24T17:21:51.155Z,2.33
2023-03-24T17:24:19.633Z,2.10
2023-03-24T17:26:47.820Z,2.07
2023-03-24T17:29:15.932Z,1.70
2023-03-24T17:31:44.130Z,1.93
2023-03-24T17:34:21.594Z,1.80
2023-03-24T17:36:52.182Z,1.53
2023-03-24T17:39:21.906Z,1.80
2023-03-24T17:41:50.147Z,1.60
2023-03-24T17:44:18.464Z,1.90
2023-03-24T17:46:46.701Z,1.77
2023-03-24T17:49:14.833Z,1.93
2023-03-24T17:51:42.919Z,1.70
2023-03-24T17:54:13.331Z,2.07
2023-03-24T17:56:41.616Z,2.43
2023-03-24T17:59:10.065Z,1.80
2023-03-24T18:01:39.549Z,1.70
2023-03-24T18:04:08.276Z,2.20
2023-03-24T18:06:38.480Z,2.13
2023-03-24T18:12:05.292Z,1.80
2023-03-24T18:14:33.443Z,1.80
2023-03-24T18:17:01.703Z,1.90
2023-03-24T18:19:29.810Z,2.03
2023-03-24T18:21:57.900Z,2.97
2023-03-24T18:24:26.510Z,1.77
2023-03-24T18:26:54.644Z,2.07
2023-03-24T18:29:24.274Z,2.40
2023-03-24T18:31:52.485Z,1.90
2023-03-24T18:34:22.178Z,3.00
2023-03-24T18:36:50.306Z,2.40
2023-03-24T18:39:18.837Z,2.23
2023-03-24T18:41:48.064Z,2.77
2023-03-24T18:44:16.672Z,2.60
2023-03-24T18:46:46.261Z,2.57
2023-03-24T18:49:15.344Z,2.00
2023-03-24T18:51:45.119Z,1.90
2023-03-24T18:54:13.711Z,2.13
2023-03-24T18:56:42.194Z,3.43
2023-03-24T18:59:11.669Z,2.53
2023-03-24T19:01:40.096Z,2.17
2023-03-24T19:04:09.610Z,2.03
2023-03-24T19:06:42.312Z,2.00
2023-03-24T19:09:12.301Z,1.73
2023-03-24T19:11:43.145Z,1.50
2023-03-24T19:14:11.886Z,1.83
2023-03-24T19:16:40.070Z,1.80
2023-03-24T19:19:09.853Z,1.83
2023-03-24T19:21:38.381Z,2.57
2023-03-24T19:24:07.181Z,1.60
2023-03-24T19:26:35.701Z,2.10
2023-03-24T19:29:03.797Z,1.90
2023-03-24T19:31:33.604Z,1.90
2023-03-24T19:34:01.910Z,1.60
2023-03-24T19:36:31.389Z,1.63
2023-03-24T19:38:59.474Z,1.70
2023-03-24T19:41:27.565Z,2.30
2023-03-24T19:43:55.833Z,1.80
2023-03-24T19:46:23.990Z,2.17
2023-03-24T19:48:52.179Z,1.70
2023-03-24T19:51:21.262Z,2.10
2023-03-24T19:53:51.141Z,1.93
2023-03-24T19:56:20.766Z,1.73
2023-03-24T19:58:48.951Z,2.17
2023-03-24T20:01:17.097Z,1.90
2023-03-24T20:03:45.382Z,2.13
2023-03-24T20:06:13.560Z,2.20
2023-03-24T20:08:41.652Z,1.93
2023-03-24T20:11:12.395Z,2.57
2023-03-24T20:13:40.559Z,2.07
2023-03-24T20:16:08.884Z,1.80
2023-03-24T20:18:38.921Z,1.57
2023-03-24T20:21:08.483Z,1.53
2023-03-24T20:23:36.529Z,2.00
2023-03-24T20:26:04.671Z,2.70
2023-03-24T20:28:34.173Z,1.77
2023-03-24T20:31:03.350Z,1.80
2023-03-24T20:33:32.038Z,6.10
2023-03-24T20:36:00.221Z,2.93
2023-03-24T20:38:28.583Z,2.27
2023-03-24T20:41:00.633Z,2.90
2023-03-24T20:43:29.550Z,1.93
2023-03-24T20:45:59.606Z,2.20
2023-03-24T20:48:27.933Z,2.13
2023-03-24T20:50:56.068Z,1.93
2023-03-24T20:53:24.913Z,2.00
2023-03-24T20:56:00.827Z,2.63
2023-03-24T20:58:30.764Z,1.80
2023-03-24T21:01:00.491Z,2.00
2023-03-24T21:03:28.578Z,2.10
2023-03-24T21:05:56.752Z,2.27
2023-03-24T21:08:24.921Z,2.20
2023-03-24T21:10:57.144Z,1.80
2023-03-24T21:13:31.692Z,2.07
2023-03-24T21:16:08.733Z,2.50
2023-03-24T21:18:38.035Z,1.80
2023-03-24T21:21:07.219Z,1.97
2023-03-24T21:23:39.062Z,1.30
2023-03-24T21:26:09.247Z,1.80
2023-03-24T21:28:37.435Z,1.93
2023-03-24T21:31:11.103Z,1.77
2023-03-24T21:33:40.819Z,1.67
2023-03-24T21:36:10.942Z,1.90
2023-03-24T21:38:39.149Z,1.30
2023-03-24T21:41:08.067Z,2.77
2023-03-24T21:43:36.453Z,2.43
2023-03-24T21:46:05.017Z,1.77
2023-03-24T21:48:35.082Z,1.23
2023-03-24T21:51:04.073Z,1.83
2023-03-24T21:53:34.776Z,1.50
2023-03-24T21:56:05.427Z,1.83
2023-03-24T21:58:34.769Z,1.17
2023-03-24T22:01:03.225Z,1.23
2023-03-24T22:03:34.478Z,1.50
2023-03-24T22:06:04.933Z,1.60
2023-03-24T22:08:33.544Z,1.33
2023-03-24T22:11:04.377Z,2.10
2023-03-24T22:13:33.940Z,1.87
2023-03-24T22:16:04.292Z,1.90
2023-03-24T22:18:34.089Z,2.03
2023-03-24T22:21:06.978Z,2.27
2023-03-24T22:23:38.074Z,1.93
2023-03-24T22:26:09.312Z,1.73
2023-03-24T22:28:38.018Z,1.90
2023-03-24T22:31:08.280Z,1.77
2023-03-24T22:33:36.848Z,2.23
2023-03-24T22:36:08.019Z,1.60
2023-03-24T22:38:36.400Z,2.00
2023-03-24T22:41:06.855Z,1.70
2023-03-24T22:43:36.249Z,1.50
2023-03-24T22:46:04.655Z,1.30
2023-03-24T22:48:32.818Z,1.60
2023-03-24T22:51:01.366Z,2.10
2023-03-24T22:53:30.914Z,2.07
2023-03-24T22:55:59.027Z,2.10
2023-03-24T22:58:27.208Z,3.40
2023-03-24T23:00:57.356Z,2.80
2023-03-24T23:03:25.552Z,2.50
2023-03-24T23:05:53.680Z,4.00
2023-03-24T23:08:21.741Z,2.70
2023-03-24T23:10:51.226Z,2.03
2023-03-24T23:13:20.095Z,2.13
2023-03-24T23:15:49.882Z,3.60
2023-03-24T23:18:18.470Z,1.77
2023-03-24T23:20:46.892Z,1.37
2023-03-24T23:23:15.428Z,1.70
2023-03-24T23:25:45.531Z,3.77
2023-03-24T23:28:15.486Z,1.70
2023-03-24T23:30:43.600Z,1.60
2023-03-24T23:33:14.968Z,2.23
2023-03-24T23:35:43.196Z,2.43
2023-03-24T23:38:11.398Z,4.57
2023-03-24T23:40:39.579Z,5.57
2023-03-24T23:43:07.853Z,7.97
2023-03-24T23:45:37.354Z,4.30
2023-03-24T23:48:06.404Z,2.33
2023-03-24T23:50:35.183Z,1.70
2023-03-24T23:53:03.254Z,2.07
2023-03-24T23:55:31.871Z,11.90
2023-03-24T23:58:00.128Z,2.30
